Terminal Aerodrome Forecast
Issued by NWS Atlanta, GA

Home | Current Version | Previous Version | Text Only | Print | Product List | Glossary On
Versions: 1 2 3 4 5 6 7 8 9 10 11 12 13 14 15 16 17 18
000
FTUS42 KFFC 302339
TAFMCN
TAF
KMCN 302339Z 3100/3124 00000KT P6SM FEW150
     FM310200 12006KT P6SM SKC
     FM310800 15004KT 4SM BR SCT012
     FM311300 15004KT P6SM SCT012
     FM312000 15006KT P6SM VCSH BKN040 PROB30 3120/3124 3SM TSRA
      BKN025CB=

USA.gov is the U.S. government's official web portal to all federal, state and local government web resources and services.